sensor_id;sensor_type;location;lat;lon;timestamp;P1;durP1;ratioP1;P2;durP2;ratioP2
41861;SDS011;27537;57.134;-2.136;2024-03-23T00:55:47;8.23;;;1.70;;
41861;SDS011;27537;57.134;-2.136;2024-03-23T00:58:13;8.05;;;2.42;;
41861;SDS011;27537;57.134;-2.136;2024-03-23T01:00:40;6.72;;;1.75;;
41861;SDS011;27537;57.134;-2.136;2024-03-23T01:03:06;6.93;;;2.40;;
41861;SDS011;27537;57.134;-2.136;2024-03-23T01:05:31;7.95;;;1.60;;
41861;SDS011;27537;57.134;-2.136;2024-03-23T01:07:57;8.88;;;1.63;;
41861;SDS011;27537;57.134;-2.136;2024-03-23T01:10:22;6.75;;;1.58;;
41861;SDS011;27537;57.134;-2.136;2024-03-23T01:12:48;7.75;;;2.03;;
41861;SDS011;27537;57.134;-2.136;2024-03-23T01:15:14;7.93;;;1.58;;
41861;SDS011;27537;57.134;-2.136;2024-03-23T01:17:39;6.50;;;1.70;;
41861;SDS011;27537;57.134;-2.136;2024-03-23T01:20:05;8.35;;;1.85;;
41861;SDS011;27537;57.134;-2.136;2024-03-23T01:22:31;6.30;;;1.58;;
41861;SDS011;27537;57.134;-2.136;2024-03-23T01:24:58;8.18;;;1.50;;
41861;SDS011;27537;57.134;-2.136;2024-03-23T01:27:24;7.40;;;1.85;;
41861;SDS011;27537;57.134;-2.136;2024-03-23T01:29:49;6.82;;;1.63;;
41861;SDS011;27537;57.134;-2.136;2024-03-23T01:32:17;7.20;;;1.67;;
41861;SDS011;27537;57.134;-2.136;2024-03-23T01:34:44;8.60;;;1.30;;
41861;SDS011;27537;57.134;-2.136;2024-03-23T01:37:10;8.07;;;1.40;;
41861;SDS011;27537;57.134;-2.136;2024-03-23T01:39:35;7.45;;;1.55;;
41861;SDS011;27537;57.134;-2.136;2024-03-23T01:42:01;10.70;;;1.70;;
41861;SDS011;27537;57.134;-2.136;2024-03-23T01:44:27;5.60;;;1.88;;
41861;SDS011;27537;57.134;-2.136;2024-03-23T01:46:52;10.63;;;2.13;;
41861;SDS011;27537;57.134;-2.136;2024-03-23T01:49:18;7.80;;;1.70;;
41861;SDS011;27537;57.134;-2.136;2024-03-23T01:51:44;11.90;;;2.33;;
41861;SDS011;27537;57.134;-2.136;2024-03-23T01:54:10;9.18;;;1.95;;
41861;SDS011;27537;57.134;-2.136;2024-03-23T01:56:36;7.78;;;2.30;;
41861;SDS011;27537;57.134;-2.136;2024-03-23T01:59:02;9.95;;;2.25;;
41861;SDS011;27537;57.134;-2.136;2024-03-23T02:01:28;11.77;;;3.17;;
41861;SDS011;27537;57.134;-2.136;2024-03-23T02:03:54;8.77;;;2.08;;
41861;SDS011;27537;57.134;-2.136;2024-03-23T02:06:19;10.35;;;1.98;;
41861;SDS011;27537;57.134;-2.136;2024-03-23T02:08:45;13.23;;;2.78;;
41861;SDS011;27537;57.134;-2.136;2024-03-23T02:11:11;7.30;;;2.22;;
41861;SDS011;27537;57.134;-2.136;2024-03-23T02:13:37;6.88;;;2.03;;
41861;SDS011;27537;57.134;-2.136;2024-03-23T02:16:03;12.85;;;2.20;;
41861;SDS011;27537;57.134;-2.136;2024-03-23T02:18:31;6.65;;;2.05;;
41861;SDS011;27537;57.134;-2.136;2024-03-23T02:20:57;7.13;;;1.77;;
41861;SDS011;27537;57.134;-2.136;2024-03-23T02:23:23;9.50;;;2.10;;
41861;SDS011;27537;57.134;-2.136;2024-03-23T02:25:49;9.23;;;1.73;;
41861;SDS011;27537;57.134;-2.136;2024-03-23T02:28:15;6.43;;;1.63;;
41861;SDS011;27537;57.134;-2.136;2024-03-23T02:30:42;9.15;;;1.90;;
41861;SDS011;27537;57.134;-2.136;2024-03-23T02:33:09;8.50;;;2.15;;
41861;SDS011;27537;57.134;-2.136;2024-03-23T02:35:36;7.65;;;1.95;;
41861;SDS011;27537;57.134;-2.136;2024-03-23T02:38:03;9.27;;;1.98;;
41861;SDS011;27537;57.134;-2.136;2024-03-23T02:40:29;10.98;;;1.92;;
41861;SDS011;27537;57.134;-2.136;2024-03-23T02:42:55;9.02;;;1.80;;
41861;SDS011;27537;57.134;-2.136;2024-03-23T02:45:21;8.73;;;1.83;;
41861;SDS011;27537;57.134;-2.136;2024-03-23T02:47:47;6.63;;;1.65;;
41861;SDS011;27537;57.134;-2.136;2024-03-23T02:50:20;14.45;;;2.30;;
41861;SDS011;27537;57.134;-2.136;2024-03-23T02:52:46;9.57;;;1.90;;
41861;SDS011;27537;57.134;-2.136;2024-03-23T02:55:12;7.45;;;1.92;;
41861;SDS011;27537;57.134;-2.136;2024-03-23T02:57:37;11.02;;;2.10;;
41861;SDS011;27537;57.134;-2.136;2024-03-23T03:00:03;7.28;;;1.80;;
41861;SDS011;27537;57.134;-2.136;2024-03-23T03:02:30;6.60;;;1.75;;
41861;SDS011;27537;57.134;-2.136;2024-03-23T03:04:56;6.35;;;1.88;;
41861;SDS011;27537;57.134;-2.136;2024-03-23T03:07:21;7.70;;;1.58;;
41861;SDS011;27537;57.134;-2.136;2024-03-23T03:09:47;6.90;;;1.52;;
41861;SDS011;27537;57.134;-2.136;2024-03-23T03:12:13;8.15;;;1.52;;
41861;SDS011;27537;57.134;-2.136;2024-03-23T03:14:38;6.88;;;1.45;;
41861;SDS011;27537;57.134;-2.136;2024-03-23T03:17:04;8.13;;;1.73;;
41861;SDS011;27537;57.134;-2.136;2024-03-23T03:19:29;7.45;;;1.50;;
41861;SDS011;27537;57.134;-2.136;2024-03-23T03:21:55;8.27;;;1.52;;
41861;SDS011;27537;57.134;-2.136;2024-03-23T03:24:21;6.80;;;1.60;;
41861;SDS011;27537;57.134;-2.136;2024-03-23T03:26:47;5.35;;;1.38;;
41861;SDS011;27537;57.134;-2.136;2024-03-23T03:29:13;3.90;;;1.13;;
41861;SDS011;27537;57.134;-2.136;2024-03-23T03:31:39;6.15;;;1.38;;
41861;SDS011;27537;57.134;-2.136;2024-03-23T03:34:04;6.13;;;1.65;;
41861;SDS011;27537;57.134;-2.136;2024-03-23T03:36:30;4.60;;;1.63;;
41861;SDS011;27537;57.134;-2.136;2024-03-23T03:38:56;6.00;;;1.55;;
41861;SDS011;27537;57.134;-2.136;2024-03-23T03:41:22;4.28;;;1.40;;
41861;SDS011;27537;57.134;-2.136;2024-03-23T03:43:49;3.95;;;1.10;;
41861;SDS011;27537;57.134;-2.136;2024-03-23T03:46:16;6.57;;;1.48;;
41861;SDS011;27537;57.134;-2.136;2024-03-23T03:48:42;6.15;;;1.40;;
41861;SDS011;27537;57.134;-2.136;2024-03-23T03:51:09;7.15;;;1.38;;
41861;SDS011;27537;57.134;-2.136;2024-03-23T03:53:35;4.63;;;1.40;;
41861;SDS011;27537;57.134;-2.136;2024-03-23T03:56:01;5.25;;;1.52;;
41861;SDS011;27537;57.134;-2.136;2024-03-23T03:58:27;3.28;;;1.20;;
41861;SDS011;27537;57.134;-2.136;2024-03-23T04:00:54;3.72;;;1.15;;
41861;SDS011;27537;57.134;-2.136;2024-03-23T04:03:20;7.15;;;1.40;;
41861;SDS011;27537;57.134;-2.136;2024-03-23T04:05:52;6.50;;;1.55;;
41861;SDS011;27537;57.134;-2.136;2024-03-23T04:08:19;5.38;;;1.60;;
41861;SDS011;27537;57.134;-2.136;2024-03-23T04:10:47;4.22;;;1.30;;
41861;SDS011;27537;57.134;-2.136;2024-03-23T04:13:13;5.07;;;1.20;;
41861;SDS011;27537;57.134;-2.136;2024-03-23T04:15:39;5.65;;;1.40;;
41861;SDS011;27537;57.134;-2.136;2024-03-23T04:18:05;9.48;;;1.60;;
41861;SDS011;27537;57.134;-2.136;2024-03-23T04:20:32;6.15;;;1.33;;
41861;SDS011;27537;57.134;-2.136;2024-03-23T04:23:00;7.55;;;1.77;;
41861;SDS011;27537;57.134;-2.136;2024-03-23T04:25:29;5.85;;;1.40;;
41861;SDS011;27537;57.134;-2.136;2024-03-23T04:27:55;7.88;;;1.70;;
41861;SDS011;27537;57.134;-2.136;2024-03-23T04:30:21;7.93;;;1.63;;
41861;SDS011;27537;57.134;-2.136;2024-03-23T04:32:50;3.05;;;1.20;;
41861;SDS011;27537;57.134;-2.136;2024-03-23T04:35:17;4.93;;;1.35;;
41861;SDS011;27537;57.134;-2.136;2024-03-23T04:37:43;6.47;;;1.77;;
41861;SDS011;27537;57.134;-2.136;2024-03-23T04:40:09;4.85;;;1.20;;
41861;SDS011;27537;57.134;-2.136;2024-03-23T04:42:36;6.75;;;1.23;;
41861;SDS011;27537;57.134;-2.136;2024-03-23T04:45:03;6.43;;;1.20;;
41861;SDS011;27537;57.134;-2.136;2024-03-23T04:47:29;4.57;;;1.23;;
41861;SDS011;27537;57.134;-2.136;2024-03-23T04:49:55;8.00;;;1.58;;
41861;SDS011;27537;57.134;-2.136;2024-03-23T04:52:20;5.97;;;1.40;;
41861;SDS011;27537;57.134;-2.136;2024-03-23T04:54:46;3.75;;;1.40;;
41861;SDS011;27537;57.134;-2.136;2024-03-23T04:57:12;3.85;;;1.30;;
41861;SDS011;27537;57.134;-2.136;2024-03-23T04:59:38;7.75;;;1.80;;
41861;SDS011;27537;57.134;-2.136;2024-03-23T05:02:04;6.47;;;2.20;;
41861;SDS011;27537;57.134;-2.136;2024-03-23T05:04:29;8.18;;;1.55;;
41861;SDS011;27537;57.134;-2.136;2024-03-23T05:06:55;5.82;;;1.77;;
41861;SDS011;27537;57.134;-2.136;2024-03-23T05:09:20;4.78;;;1.27;;
41861;SDS011;27537;57.134;-2.136;2024-03-23T05:11:47;4.82;;;1.30;;
41861;SDS011;27537;57.134;-2.136;2024-03-23T05:14:13;3.97;;;1.30;;
41861;SDS011;27537;57.134;-2.136;2024-03-23T05:16:40;4.05;;;1.15;;
41861;SDS011;27537;57.134;-2.136;2024-03-23T05:19:06;11.88;;;1.70;;
41861;SDS011;27537;57.134;-2.136;2024-03-23T05:21:33;8.57;;;1.60;;
41861;SDS011;27537;57.134;-2.136;2024-03-23T05:23:58;6.03;;;1.30;;
41861;SDS011;27537;57.134;-2.136;2024-03-23T05:26:24;5.13;;;1.27;;
41861;SDS011;27537;57.134;-2.136;2024-03-23T05:28:50;7.43;;;1.30;;
41861;SDS011;27537;57.134;-2.136;2024-03-23T05:31:22;5.50;;;1.30;;
41861;SDS011;27537;57.134;-2.136;2024-03-23T05:33:52;6.63;;;1.30;;
41861;SDS011;27537;57.134;-2.136;2024-03-23T05:36:18;7.38;;;1.45;;
41861;SDS011;27537;57.134;-2.136;2024-03-23T05:38:43;4.80;;;1.10;;
41861;SDS011;27537;57.134;-2.136;2024-03-23T05:41:09;6.35;;;1.60;;
41861;SDS011;27537;57.134;-2.136;2024-03-23T05:43:35;5.72;;;1.20;;
41861;SDS011;27537;57.134;-2.136;2024-03-23T05:46:01;5.53;;;1.65;;
41861;SDS011;27537;57.134;-2.136;2024-03-23T05:48:27;3.70;;;1.10;;
41861;SDS011;27537;57.134;-2.136;2024-03-23T05:50:54;5.10;;;1.73;;
41861;SDS011;27537;57.134;-2.136;2024-03-23T05:53:19;6.25;;;1.92;;
41861;SDS011;27537;57.134;-2.136;2024-03-23T05:55:45;4.15;;;1.50;;
41861;SDS011;27537;57.134;-2.136;2024-03-23T05:58:14;4.97;;;1.40;;
41861;SDS011;27537;57.134;-2.136;2024-03-23T06:00:40;5.07;;;1.13;;
41861;SDS011;27537;57.134;-2.136;2024-03-23T06:03:08;5.18;;;1.38;;
41861;SDS011;27537;57.134;-2.136;2024-03-23T06:05:36;5.38;;;1.40;;
41861;SDS011;27537;57.134;-2.136;2024-03-23T06:08:03;4.35;;;1.58;;
41861;SDS011;27537;57.134;-2.136;2024-03-23T06:10:29;6.80;;;1.33;;
41861;SDS011;27537;57.134;-2.136;2024-03-23T06:12:54;4.32;;;1.95;;
41861;SDS011;27537;57.134;-2.136;2024-03-23T06:15:20;8.27;;;1.45;;
41861;SDS011;27537;57.134;-2.136;2024-03-23T06:17:47;5.20;;;1.40;;
41861;SDS011;27537;57.134;-2.136;2024-03-23T06:20:14;8.38;;;1.55;;
41861;SDS011;27537;57.134;-2.136;2024-03-23T06:22:39;8.05;;;1.77;;
41861;SDS011;27537;57.134;-2.136;2024-03-23T06:25:06;6.78;;;1.50;;
41861;SDS011;27537;57.134;-2.136;2024-03-23T06:27:33;8.23;;;2.08;;
41861;SDS011;27537;57.134;-2.136;2024-03-23T06:29:59;9.35;;;2.05;;
41861;SDS011;27537;57.134;-2.136;2024-03-23T06:32:25;6.93;;;1.70;;
41861;SDS011;27537;57.134;-2.136;2024-03-23T06:34:51;4.15;;;1.58;;
41861;SDS011;27537;57.134;-2.136;2024-03-23T06:37:16;3.95;;;1.20;;
41861;SDS011;27537;57.134;-2.136;2024-03-23T06:39:42;6.40;;;2.08;;
41861;SDS011;27537;57.134;-2.136;2024-03-23T06:42:07;9.18;;;1.92;;
41861;SDS011;27537;57.134;-2.136;2024-03-23T06:44:33;6.50;;;2.20;;
41861;SDS011;27537;57.134;-2.136;2024-03-23T06:46:59;6.95;;;1.58;;
41861;SDS011;27537;57.134;-2.136;2024-03-23T06:49:25;6.43;;;1.45;;
41861;SDS011;27537;57.134;-2.136;2024-03-23T06:51:51;7.15;;;1.83;;
41861;SDS011;27537;57.134;-2.136;2024-03-23T06:54:17;5.93;;;1.75;;
41861;SDS011;27537;57.134;-2.136;2024-03-23T06:56:44;4.72;;;1.60;;
41861;SDS011;27537;57.134;-2.136;2024-03-23T06:59:10;6.15;;;1.95;;
41861;SDS011;27537;57.134;-2.136;2024-03-23T07:01:35;5.93;;;1.60;;
41861;SDS011;27537;57.134;-2.136;2024-03-23T07:04:02;4.30;;;1.45;;
41861;SDS011;27537;57.134;-2.136;2024-03-23T07:06:29;2.97;;;1.35;;
41861;SDS011;27537;57.134;-2.136;2024-03-23T07:08:57;4.25;;;1.42;;
41861;SDS011;27537;57.134;-2.136;2024-03-23T07:11:23;6.50;;;2.08;;
41861;SDS011;27537;57.134;-2.136;2024-03-23T07:13:50;6.57;;;1.55;;
41861;SDS011;27537;57.134;-2.136;2024-03-23T07:16:17;3.88;;;1.25;;
41861;SDS011;27537;57.134;-2.136;2024-03-23T07:18:43;3.05;;;1.05;;
41861;SDS011;27537;57.134;-2.136;2024-03-23T07:21:09;3.75;;;1.13;;
41861;SDS011;27537;57.134;-2.136;2024-03-23T07:23:35;3.72;;;1.05;;
41861;SDS011;27537;57.134;-2.136;2024-03-23T07:26:03;3.55;;;1.10;;
41861;SDS011;27537;57.134;-2.136;2024-03-23T07:28:31;3.15;;;1.17;;
41861;SDS011;27537;57.134;-2.136;2024-03-23T07:31:01;3.25;;;1.15;;
41861;SDS011;27537;57.134;-2.136;2024-03-23T07:33:31;4.28;;;1.10;;
41861;SDS011;27537;57.134;-2.136;2024-03-23T07:35:57;2.58;;;1.00;;
41861;SDS011;27537;57.134;-2.136;2024-03-23T07:38:26;4.25;;;1.10;;
41861;SDS011;27537;57.134;-2.136;2024-03-23T07:40:52;5.75;;;1.02;;
41861;SDS011;27537;57.134;-2.136;2024-03-23T07:43:27;1.80;;;0.95;;
41861;SDS011;27537;57.134;-2.136;2024-03-23T07:45:53;2.65;;;1.00;;
41861;SDS011;27537;57.134;-2.136;2024-03-23T07:48:20;3.42;;;1.10;;
41861;SDS011;27537;57.134;-2.136;2024-03-23T07:50:57;2.50;;;1.00;;
41861;SDS011;27537;57.134;-2.136;2024-03-23T07:53:31;3.58;;;1.10;;
41861;SDS011;27537;57.134;-2.136;2024-03-23T07:55:59;3.15;;;1.10;;
41861;SDS011;27537;57.134;-2.136;2024-03-23T07:58:26;3.83;;;1.30;;
41861;SDS011;27537;57.134;-2.136;2024-03-23T08:00:54;2.30;;;1.15;;
41861;SDS011;27537;57.134;-2.136;2024-03-23T08:03:20;4.85;;;1.50;;
41861;SDS011;27537;57.134;-2.136;2024-03-23T08:05:46;5.40;;;1.45;;
41861;SDS011;27537;57.134;-2.136;2024-03-23T08:08:14;6.07;;;1.83;;
41861;SDS011;27537;57.134;-2.136;2024-03-23T08:10:47;4.75;;;1.38;;
41861;SDS011;27537;57.134;-2.136;2024-03-23T08:13:14;4.50;;;1.20;;
41861;SDS011;27537;57.134;-2.136;2024-03-23T08:15:40;3.30;;;1.40;;
41861;SDS011;27537;57.134;-2.136;2024-03-23T08:18:06;4.95;;;1.63;;
41861;SDS011;27537;57.134;-2.136;2024-03-23T08:20:32;5.07;;;1.38;;
41861;SDS011;27537;57.134;-2.136;2024-03-23T08:22:59;3.92;;;1.33;;
41861;SDS011;27537;57.134;-2.136;2024-03-23T08:25:25;4.32;;;1.27;;
41861;SDS011;27537;57.134;-2.136;2024-03-23T08:27:51;4.38;;;1.40;;
41861;SDS011;27537;57.134;-2.136;2024-03-23T08:30:17;3.75;;;1.20;;
41861;SDS011;27537;57.134;-2.136;2024-03-23T08:32:44;3.70;;;1.30;;
41861;SDS011;27537;57.134;-2.136;2024-03-23T08:35:11;3.13;;;1.20;;
41861;SDS011;27537;57.134;-2.136;2024-03-23T08:37:40;3.55;;;1.10;;
41861;SDS011;27537;57.134;-2.136;2024-03-23T08:40:06;3.45;;;1.00;;
41861;SDS011;27537;57.134;-2.136;2024-03-23T08:42:32;3.53;;;1.25;;
41861;SDS011;27537;57.134;-2.136;2024-03-23T08:44:59;2.92;;;1.13;;
41861;SDS011;27537;57.134;-2.136;2024-03-23T08:47:25;4.18;;;1.05;;
41861;SDS011;27537;57.134;-2.136;2024-03-23T08:49:51;5.47;;;1.40;;
41861;SDS011;27537;57.134;-2.136;2024-03-23T08:52:19;3.47;;;1.13;;
41861;SDS011;27537;57.134;-2.136;2024-03-23T08:54:45;3.85;;;1.10;;
41861;SDS011;27537;57.134;-2.136;2024-03-23T08:57:12;3.65;;;1.25;;
41861;SDS011;27537;57.134;-2.136;2024-03-23T08:59:38;5.05;;;1.70;;
41861;SDS011;27537;57.134;-2.136;2024-03-23T09:02:03;5.13;;;1.70;;
41861;SDS011;27537;57.134;-2.136;2024-03-23T09:04:30;6.95;;;1.80;;
41861;SDS011;27537;57.134;-2.136;2024-03-23T09:06:56;5.07;;;1.50;;
41861;SDS011;27537;57.134;-2.136;2024-03-23T09:09:24;7.68;;;1.60;;
41861;SDS011;27537;57.134;-2.136;2024-03-23T09:11:50;7.57;;;1.73;;
41861;SDS011;27537;57.134;-2.136;2024-03-23T09:14:15;4.95;;;1.75;;
41861;SDS011;27537;57.134;-2.136;2024-03-23T09:16:41;6.78;;;2.00;;
41861;SDS011;27537;57.134;-2.136;2024-03-23T09:19:06;7.85;;;1.60;;
41861;SDS011;27537;57.134;-2.136;2024-03-23T09:21:32;5.47;;;1.60;;
41861;SDS011;27537;57.134;-2.136;2024-03-23T09:23:58;5.38;;;1.85;;
41861;SDS011;27537;57.134;-2.136;2024-03-23T09:26:24;8.80;;;1.73;;
41861;SDS011;27537;57.134;-2.136;2024-03-23T09:28:49;6.88;;;1.55;;
41861;SDS011;27537;57.134;-2.136;2024-03-23T09:31:15;6.50;;;1.55;;
41861;SDS011;27537;57.134;-2.136;2024-03-23T09:33:42;3.67;;;1.30;;
41861;SDS011;27537;57.134;-2.136;2024-03-23T09:36:08;4.88;;;1.35;;
41861;SDS011;27537;57.134;-2.136;2024-03-23T09:38:34;5.68;;;1.30;;
41861;SDS011;27537;57.134;-2.136;2024-03-23T09:41:00;4.30;;;1.30;;
41861;SDS011;27537;57.134;-2.136;2024-03-23T09:43:25;3.30;;;1.15;;
41861;SDS011;27537;57.134;-2.136;2024-03-23T09:45:51;2.63;;;1.10;;
41861;SDS011;27537;57.134;-2.136;2024-03-23T09:48:18;1.80;;;1.00;;
41861;SDS011;27537;57.134;-2.136;2024-03-23T09:50:44;3.17;;;1.40;;
41861;SDS011;27537;57.134;-2.136;2024-03-23T09:53:14;3.78;;;1.38;;
41861;SDS011;27537;57.134;-2.136;2024-03-23T09:55:40;3.95;;;1.77;;
41861;SDS011;27537;57.134;-2.136;2024-03-23T09:58:07;2.38;;;1.10;;
41861;SDS011;27537;57.134;-2.136;2024-03-23T10:00:34;4.82;;;1.40;;
41861;SDS011;27537;57.134;-2.136;2024-03-23T10:03:00;3.92;;;1.30;;
41861;SDS011;27537;57.134;-2.136;2024-03-23T10:05:30;4.13;;;1.38;;
41861;SDS011;27537;57.134;-2.136;2024-03-23T10:08:00;4.93;;;1.25;;
41861;SDS011;27537;57.134;-2.136;2024-03-23T10:10:52;4.75;;;1.15;;
41861;SDS011;27537;57.134;-2.136;2024-03-23T10:13:23;3.00;;;1.20;;
41861;SDS011;27537;57.134;-2.136;2024-03-23T10:15:58;2.55;;;1.00;;
41861;SDS011;27537;57.134;-2.136;2024-03-23T10:18:24;4.32;;;1.30;;
41861;SDS011;27537;57.134;-2.136;2024-03-23T10:20:52;3.60;;;1.20;;
41861;SDS011;27537;57.134;-2.136;2024-03-23T10:23:25;2.72;;;1.13;;
41861;SDS011;27537;57.134;-2.136;2024-03-23T10:25:51;6.18;;;1.30;;
41861;SDS011;27537;57.134;-2.136;2024-03-23T10:28:17;3.95;;;1.23;;
41861;SDS011;27537;57.134;-2.136;2024-03-23T10:30:45;4.10;;;1.33;;
41861;SDS011;27537;57.134;-2.136;2024-03-23T10:33:10;5.95;;;1.50;;
41861;SDS011;27537;57.134;-2.136;2024-03-23T10:35:37;5.15;;;1.30;;
41861;SDS011;27537;57.134;-2.136;2024-03-23T10:38:05;2.88;;;1.13;;
41861;SDS011;27537;57.134;-2.136;2024-03-23T10:40:35;5.15;;;1.48;;
41861;SDS011;27537;57.134;-2.136;2024-03-23T10:43:05;5.30;;;1.58;;
41861;SDS011;27537;57.134;-2.136;2024-03-23T10:45:33;6.15;;;1.58;;
41861;SDS011;27537;57.134;-2.136;2024-03-23T10:47:59;5.75;;;1.52;;
41861;SDS011;27537;57.134;-2.136;2024-03-23T10:50:25;8.50;;;1.77;;
41861;SDS011;27537;57.134;-2.136;2024-03-23T10:52:52;5.15;;;1.70;;
41861;SDS011;27537;57.134;-2.136;2024-03-23T10:55:18;6.72;;;1.92;;
41861;SDS011;27537;57.134;-2.136;2024-03-23T10:57:54;11.27;;;1.63;;
41861;SDS011;27537;57.134;-2.136;2024-03-23T11:00:21;6.25;;;1.85;;
41861;SDS011;27537;57.134;-2.136;2024-03-23T11:02:48;7.70;;;1.45;;
41861;SDS011;27537;57.134;-2.136;2024-03-23T11:05:35;7.40;;;1.73;;
41861;SDS011;27537;57.134;-2.136;2024-03-23T11:08:00;5.70;;;1.80;;
41861;SDS011;27537;57.134;-2.136;2024-03-23T11:10:27;6.00;;;1.85;;
41861;SDS011;27537;57.134;-2.136;2024-03-23T11:12:55;6.82;;;1.60;;
41861;SDS011;27537;57.134;-2.136;2024-03-23T11:15:22;7.13;;;1.52;;
41861;SDS011;27537;57.134;-2.136;2024-03-23T11:18:03;6.05;;;1.50;;
41861;SDS011;27537;57.134;-2.136;2024-03-23T11:20:37;7.43;;;1.65;;
41861;SDS011;27537;57.134;-2.136;2024-03-23T11:23:28;6.70;;;1.98;;
41861;SDS011;27537;57.134;-2.136;2024-03-23T11:25:54;6.88;;;1.80;;
41861;SDS011;27537;57.134;-2.136;2024-03-23T11:28:19;8.98;;;1.80;;
41861;SDS011;27537;57.134;-2.136;2024-03-23T11:30:45;9.48;;;1.80;;
41861;SDS011;27537;57.134;-2.136;2024-03-23T11:33:11;12.82;;;2.30;;
41861;SDS011;27537;57.134;-2.136;2024-03-23T11:35:38;8.63;;;2.08;;
41861;SDS011;27537;57.134;-2.136;2024-03-23T11:40:45;9.38;;;2.00;;
41861;SDS011;27537;57.134;-2.136;2024-03-23T11:45:45;8.30;;;2.22;;
41861;SDS011;27537;57.134;-2.136;2024-03-23T11:48:18;12.38;;;2.50;;
41861;SDS011;27537;57.134;-2.136;2024-03-23T11:50:45;9.13;;;2.15;;
41861;SDS011;27537;57.134;-2.136;2024-03-23T11:53:13;12.90;;;2.38;;
41861;SDS011;27537;57.134;-2.136;2024-03-23T11:58:18;12.98;;;2.95;;
41861;SDS011;27537;57.134;-2.136;2024-03-23T12:00:57;11.75;;;2.53;;
41861;SDS011;27537;57.134;-2.136;2024-03-23T12:03:28;12.05;;;2.45;;
41861;SDS011;27537;57.134;-2.136;2024-03-23T12:06:02;14.13;;;2.42;;
41861;SDS011;27537;57.134;-2.136;2024-03-23T12:08:30;14.43;;;2.28;;
41861;SDS011;27537;57.134;-2.136;2024-03-23T12:11:12;8.80;;;1.80;;
41861;SDS011;27537;57.134;-2.136;2024-03-23T12:13:42;9.30;;;2.33;;
41861;SDS011;27537;57.134;-2.136;2024-03-23T12:16:12;16.88;;;2.97;;
41861;SDS011;27537;57.134;-2.136;2024-03-23T12:18:38;13.20;;;3.13;;
41861;SDS011;27537;57.134;-2.136;2024-03-23T12:21:05;21.80;;;2.80;;
41861;SDS011;27537;57.134;-2.136;2024-03-23T12:23:32;9.50;;;2.15;;
41861;SDS011;27537;57.134;-2.136;2024-03-23T12:25:58;7.80;;;2.00;;
41861;SDS011;27537;57.134;-2.136;2024-03-23T12:28:24;11.38;;;2.30;;
41861;SDS011;27537;57.134;-2.136;2024-03-23T12:30:51;6.70;;;2.00;;
41861;SDS011;27537;57.134;-2.136;2024-03-23T12:33:17;6.80;;;1.55;;
41861;SDS011;27537;57.134;-2.136;2024-03-23T12:35:43;10.48;;;1.50;;
41861;SDS011;27537;57.134;-2.136;2024-03-23T12:38:09;8.13;;;1.52;;
41861;SDS011;27537;57.134;-2.136;2024-03-23T12:40:34;11.93;;;1.92;;
41861;SDS011;27537;57.134;-2.136;2024-03-23T12:43:00;7.95;;;1.75;;
41861;SDS011;27537;57.134;-2.136;2024-03-23T12:45:26;9.45;;;2.85;;
41861;SDS011;27537;57.134;-2.136;2024-03-23T12:47:52;17.27;;;3.50;;
41861;SDS011;27537;57.134;-2.136;2024-03-23T12:50:19;8.95;;;2.22;;
41861;SDS011;27537;57.134;-2.136;2024-03-23T12:52:46;8.15;;;2.03;;
41861;SDS011;27537;57.134;-2.136;2024-03-23T12:55:12;11.63;;;2.70;;
41861;SDS011;27537;57.134;-2.136;2024-03-23T12:57:38;14.20;;;2.80;;
41861;SDS011;27537;57.134;-2.136;2024-03-23T13:00:04;15.05;;;3.25;;
41861;SDS011;27537;57.134;-2.136;2024-03-23T13:02:30;15.30;;;3.55;;
41861;SDS011;27537;57.134;-2.136;2024-03-23T13:04:56;12.18;;;3.00;;
41861;SDS011;27537;57.134;-2.136;2024-03-23T13:07:22;13.70;;;3.08;;
41861;SDS011;27537;57.134;-2.136;2024-03-23T13:09:52;10.23;;;2.83;;
41861;SDS011;27537;57.134;-2.136;2024-03-23T13:12:21;13.85;;;3.13;;
41861;SDS011;27537;57.134;-2.136;2024-03-23T13:14:47;12.40;;;2.85;;
41861;SDS011;27537;57.134;-2.136;2024-03-23T13:17:12;14.55;;;2.58;;
41861;SDS011;27537;57.134;-2.136;2024-03-23T13:19:38;15.18;;;2.70;;
41861;SDS011;27537;57.134;-2.136;2024-03-23T13:22:05;13.40;;;2.63;;
41861;SDS011;27537;57.134;-2.136;2024-03-23T13:24:30;11.05;;;2.50;;
41861;SDS011;27537;57.134;-2.136;2024-03-23T13:26:57;12.27;;;2.30;;
41861;SDS011;27537;57.134;-2.136;2024-03-23T13:29:23;14.30;;;3.25;;
41861;SDS011;27537;57.134;-2.136;2024-03-23T13:31:50;14.57;;;3.17;;
41861;SDS011;27537;57.134;-2.136;2024-03-23T13:34:16;17.13;;;3.60;;
41861;SDS011;27537;57.134;-2.136;2024-03-23T13:36:43;11.15;;;2.17;;
41861;SDS011;27537;57.134;-2.136;2024-03-23T13:39:12;8.55;;;2.10;;
41861;SDS011;27537;57.134;-2.136;2024-03-23T13:41:39;12.13;;;2.35;;
41861;SDS011;27537;57.134;-2.136;2024-03-23T13:44:06;12.75;;;2.65;;
41861;SDS011;27537;57.134;-2.136;2024-03-23T13:46:32;10.00;;;2.53;;
41861;SDS011;27537;57.134;-2.136;2024-03-23T13:48:58;12.35;;;2.40;;
41861;SDS011;27537;57.134;-2.136;2024-03-23T13:51:24;11.50;;;2.47;;
41861;SDS011;27537;57.134;-2.136;2024-03-23T13:53:54;9.50;;;2.60;;
41861;SDS011;27537;57.134;-2.136;2024-03-23T13:56:20;14.30;;;2.58;;
41861;SDS011;27537;57.134;-2.136;2024-03-23T13:58:46;13.07;;;3.30;;
41861;SDS011;27537;57.134;-2.136;2024-03-23T14:01:13;11.57;;;2.72;;
41861;SDS011;27537;57.134;-2.136;2024-03-23T14:03:42;9.68;;;2.08;;
41861;SDS011;27537;57.134;-2.136;2024-03-23T14:06:09;11.98;;;2.47;;
41861;SDS011;27537;57.134;-2.136;2024-03-23T14:08:35;14.38;;;2.58;;
41861;SDS011;27537;57.134;-2.136;2024-03-23T14:11:08;11.20;;;2.78;;
41861;SDS011;27537;57.134;-2.136;2024-03-23T14:13:34;8.32;;;1.92;;
41861;SDS011;27537;57.134;-2.136;2024-03-23T14:16:00;10.02;;;2.35;;
41861;SDS011;27537;57.134;-2.136;2024-03-23T14:18:26;8.10;;;2.65;;
41861;SDS011;27537;57.134;-2.136;2024-03-23T14:20:52;8.57;;;2.28;;
41861;SDS011;27537;57.134;-2.136;2024-03-23T14:23:28;6.07;;;1.50;;
41861;SDS011;27537;57.134;-2.136;2024-03-23T14:25:58;7.07;;;1.80;;
41861;SDS011;27537;57.134;-2.136;2024-03-23T14:28:24;10.10;;;2.00;;
41861;SDS011;27537;57.134;-2.136;2024-03-23T14:30:50;9.27;;;1.80;;
41861;SDS011;27537;57.134;-2.136;2024-03-23T14:33:17;5.20;;;1.63;;
41861;SDS011;27537;57.134;-2.136;2024-03-23T14:35:52;11.75;;;2.20;;
41861;SDS011;27537;57.134;-2.136;2024-03-23T14:38:22;8.18;;;1.85;;
41861;SDS011;27537;57.134;-2.136;2024-03-23T14:40:48;8.98;;;2.20;;
41861;SDS011;27537;57.134;-2.136;2024-03-23T14:43:14;11.05;;;2.50;;
41861;SDS011;27537;57.134;-2.136;2024-03-23T14:48:45;13.35;;;1.98;;
41861;SDS011;27537;57.134;-2.136;2024-03-23T14:51:11;10.07;;;2.13;;
41861;SDS011;27537;57.134;-2.136;2024-03-23T14:53:38;10.50;;;2.25;;
41861;SDS011;27537;57.134;-2.136;2024-03-23T14:56:05;9.60;;;1.85;;
41861;SDS011;27537;57.134;-2.136;2024-03-23T14:58:31;10.27;;;2.53;;
41861;SDS011;27537;57.134;-2.136;2024-03-23T15:01:04;13.05;;;2.20;;
41861;SDS011;27537;57.134;-2.136;2024-03-23T15:03:31;11.30;;;3.95;;
41861;SDS011;27537;57.134;-2.136;2024-03-23T15:05:57;10.80;;;2.10;;
41861;SDS011;27537;57.134;-2.136;2024-03-23T15:08:25;9.73;;;1.65;;
41861;SDS011;27537;57.134;-2.136;2024-03-23T15:10:51;10.80;;;1.90;;
41861;SDS011;27537;57.134;-2.136;2024-03-23T15:13:17;8.60;;;1.90;;
41861;SDS011;27537;57.134;-2.136;2024-03-23T15:15:43;9.02;;;2.33;;
41861;SDS011;27537;57.134;-2.136;2024-03-23T15:18:10;9.73;;;1.88;;
41861;SDS011;27537;57.134;-2.136;2024-03-23T15:20:39;7.70;;;1.92;;
41861;SDS011;27537;57.134;-2.136;2024-03-23T15:23:04;8.57;;;2.05;;
41861;SDS011;27537;57.134;-2.136;2024-03-23T15:25:30;10.38;;;1.90;;
41861;SDS011;27537;57.134;-2.136;2024-03-23T15:27:57;8.70;;;2.60;;
41861;SDS011;27537;57.134;-2.136;2024-03-23T15:30:24;6.82;;;1.77;;
41861;SDS011;27537;57.134;-2.136;2024-03-23T15:32:50;8.90;;;1.77;;
41861;SDS011;27537;57.134;-2.136;2024-03-23T15:35:15;5.88;;;1.48;;